Cetus — WDJ5269 — position and weather

sailwx.info

Track history (hours):
 
Tides and Currents Weather Stations Pressure Air Temp Water Temp Dewpoint Dewpoint Depression Visibility Wind Speed Wind Dir Waves Ship Positions

Cetus

Owner: San Francisco Bay Area Water Emergency Transportation Authorithy, San Francisco, CA. More information available from US FCC via Universal Licensing System and Coast Guard Vessel Documentation Center.

Last reported at 2017-Dec-11 17:01 UTC. Time now 2017-Dec-13 05:08 UTC.
Position N 37°48' W 122°18'.

Length 41 m; draft 2 m.

Type: Passenger vessel. MMSI: 367786010.

Date/timePositionNaut miles runAvg speedWind from/ knotsBaromVisibWave heightAir tempDewpointWater temp
2017-Dec-11 17:01N 37°48' W 122°18'2 4.0
2017-Dec-11 16:30N 37°48' W 122°21'1 1.9
2017-Dec-11 16:00N 37°48' W 122°20'3 5.4
2017-Dec-11 15:31N 37°48' W 122°23'5 9.7
2017-Dec-11 15:00N 37°48' W 122°17'4 7.9
2017-Dec-11 14:30N 37°47' W 122°22'3 6.5
2017-Dec-11 14:01N 37°47' W 122°18'3 5.9
2017-Dec-11 13:31N 37°48' W 122°21'3 5.5
2017-Dec-11 13:00N 37°49' W 122°25'0 0.0
2017-Dec-11 04:33N 37°49' W 122°25'0 0.0
2017-Dec-11 04:30N 37°49' W 122°25'612.5
2017-Dec-11 04:01N 37°48' W 122°17'2 3.9
2017-Dec-11 03:30N 37°48' W 122°19'4 8.6
2017-Dec-11 03:01N 37°49' W 122°25'4 9.0
2017-Dec-11 02:31N 37°48' W 122°19'1 2.5
2017-Dec-11 02:01N 37°47' W 122°18'4 8.9
2017-Dec-11 01:31N 37°48' W 122°23'1 2.7
2017-Dec-11 01:01N 37°48' W 122°22'3 6.2
2017-Dec-11 00:30N 37°47' W 122°18'4 9.0
2017-Dec-11 00:00N 37°48' W 122°23'1 2.7
2017-Dec-10 23:30N 37°49' W 122°25'0 0.0
2017-Dec-10 23:00N 37°49' W 122°25'1 1.1
2017-Dec-10 22:30N 37°49' W 122°24'510.2
2017-Dec-10 22:00N 37°48' W 122°18'1 1.6
2017-Dec-10 21:30N 37°48' W 122°19'5 9.6
2017-Dec-10 21:00N 37°49' W 122°25'1 2.6
2017-Dec-10 20:30N 37°48' W 122°24'510.2
2017-Dec-10 20:01N 37°48' W 122°17'510.2
2017-Dec-10 19:31N 37°48' W 122°24'1 2.6
2017-Dec-10 19:01N 37°49' W 122°25'0 0.0
2017-Dec-10 18:30N 37°49' W 122°25'0 0.0
2017-Dec-10 18:00N 37°49' W 122°25'0 0.0
2017-Dec-10 17:31N 37°49' W 122°25'0 0.0
2017-Dec-10 17:00N 37°49' W 122°25'0 0.0
2017-Dec-10 16:30N 37°49' W 122°25'0 0.0
2017-Dec-10 16:00N 37°49' W 122°25'0 0.0
2017-Dec-10 15:30N 37°49' W 122°25'0 0.0
2017-Dec-10 15:01N 37°49' W 122°25'0 0.0
2017-Dec-10 14:30N 37°49' W 122°25'0 0.0
2017-Dec-10 14:00N 37°49' W 122°25'0 0.0
2017-Dec-10 13:30N 37°49' W 122°25'0 0.0
2017-Dec-10 13:00N 37°49' W 122°25'0 0.1
2017-Dec-10 12:30N 37°49' W 122°25'0 0.1
2017-Dec-10 12:00N 37°49' W 122°25'0 0.0
2017-Dec-10 11:30N 37°49' W 122°25'0 0.0
2017-Dec-10 11:01N 37°49' W 122°25'0 0.0
2017-Dec-10 10:30N 37°49' W 122°25'0 0.0
2017-Dec-10 10:00N 37°49' W 122°25'0 0.0
2017-Dec-10 09:30N 37°49' W 122°25'0 0.0
2017-Dec-10 09:00N 37°49' W 122°25'0 0.0
2017-Dec-10 08:31N 37°49' W 122°25'0 0.0
2017-Dec-10 08:00N 37°49' W 122°25'0 0.0
2017-Dec-10 07:31N 37°49' W 122°25'0 0.0
2017-Dec-10 07:00N 37°49' W 122°25'0 0.0
2017-Dec-10 06:30N 37°49' W 122°25'0 0.0
2017-Dec-10 06:00N 37°49' W 122°25'0 0.0
2017-Dec-10 05:30N 37°49' W 122°25'0 0.0
2017-Dec-10 05:01N 37°49' W 122°25'0 0.0
2017-Dec-10 04:31N 37°49' W 122°25'0 0.0
2017-Dec-10 04:00N 37°49' W 122°25'0 0.0
2017-Dec-10 03:30N 37°49' W 122°25'0 0.0
2017-Dec-10 03:00N 37°49' W 122°25'0 0.0
2017-Dec-10 02:30N 37°49' W 122°25'0 0.0
2017-Dec-10 02:00N 37°49' W 122°25'0 0.0
2017-Dec-10 01:30N 37°49' W 122°25'0 0.0
2017-Dec-10 01:00N 37°49' W 122°25'0 0.0
2017-Dec-10 00:30N 37°49' W 122°25'0 0.0
2017-Dec-10 00:00N 37°49' W 122°25'1 2.5
2017-Dec-09 23:31N 37°48' W 122°23'510.3
2017-Dec-09 23:00N 37°48' W 122°17'2 3.5
2017-Dec-09 22:30N 37°48' W 122°19'5 9.1
2017-Dec-09 22:00N 37°49' W 122°25'0 0.0
2017-Dec-09 21:30N 37°49' W 122°25'0 0.0
2017-Dec-09 21:00N 37°49' W 122°25'0 0.0
2017-Dec-09 20:30N 37°49' W 122°25'2 4.7
2017-Dec-09 20:00N 37°48' W 122°22'3 6.9
2017-Dec-09 19:30N 37°47' W 122°18'5 9.2
2017-Dec-09 19:00N 37°48' W 122°24'1 2.6
2017-Dec-09 18:30N 37°49' W 122°25'611.4
2017-Dec-09 18:00N 37°47' W 122°18'1 2.6
2017-Dec-09 17:30N 37°48' W 122°19'4 8.8
2017-Dec-09 17:00N 37°49' W 122°25'0 0.0
2017-Dec-09 04:58N 37°49' W 122°25'1 2.1
2017-Dec-09 04:30N 37°48' W 122°24'510.8
2017-Dec-09 04:00N 37°48' W 122°17'4 8.5
2017-Dec-09 03:31N 37°48' W 122°22'4 8.3
2017-Dec-09 03:01N 37°48' W 122°17'4 8.4
2017-Dec-09 02:31N 37°48' W 122°22'4 7.8
2017-Dec-09 02:00N 37°48' W 122°17'2 3.8
2017-Dec-09 01:31N 37°48' W 122°20'3 6.0
2017-Dec-09 01:00N 37°48' W 122°24'1 2.1
2017-Dec-09 00:30N 37°48' W 122°22'4 8.6
2017-Dec-09 00:00N 37°48' W 122°17'612.5
2017-Dec-08 23:30N 37°49' W 122°25'0 0.0
2017-Dec-08 23:00N 37°49' W 122°25'0 0.0
2017-Dec-08 22:30N 37°49' W 122°25'0 0.0
2017-Dec-08 22:00N 37°49' W 122°25'0 0.0
2017-Dec-08 21:30N 37°49' W 122°25'0 0.0
2017-Dec-08 21:00N 37°49' W 122°25'0 0.0
2017-Dec-08 20:30N 37°49' W 122°25'0 0.0
2017-Dec-08 20:00N 37°49' W 122°25'0 0.0
2017-Dec-08 19:30N 37°49' W 122°25'0 0.0
2017-Dec-08 19:00N 37°49' W 122°25'0 0.0
2017-Dec-08 18:30N 37°49' W 122°25'0 0.1
2017-Dec-08 18:01N 37°49' W 122°25'510.8
2017-Dec-08 17:31N 37°48' W 122°18'1 1.5
2017-Dec-08 17:00N 37°48' W 122°17'3 6.4
2017-Dec-08 16:31N 37°48' W 122°21'3 5.0
2017-Dec-08 16:00N 37°48' W 122°18'4 8.7
2017-Dec-08 15:31N 37°48' W 122°24'510.6
2017-Dec-08 15:01N 37°48' W 122°17'4 7.7
2017-Dec-08 14:31N 37°47' W 122°22'3 6.3
2017-Dec-08 14:00N 37°47' W 122°18'2 3.4
2017-Dec-08 13:30N 37°48' W 122°20'4 8.0
2017-Dec-08 13:00N 37°49' W 122°25'0 0.0
2017-Dec-08 04:39N 37°49' W 122°25'1 4.7
2017-Dec-08 04:31N 37°49' W 122°24'611.4
2017-Dec-08 04:00N 37°48' W 122°17'5 9.6
2017-Dec-08 03:31N 37°48' W 122°23'5 9.5
2017-Dec-08 03:01N 37°48' W 122°17'4 8.3
2017-Dec-08 02:31N 37°47' W 122°22'4 8.4
2017-Dec-08 02:01N 37°48' W 122°17'2 5.0
2017-Dec-08 01:31N 37°48' W 122°20'3 5.7
2017-Dec-08 01:01N 37°48' W 122°24'0 0.4
2017-Dec-08 00:31N 37°48' W 122°23'510.0
2017-Dec-08 00:01N 37°48' W 122°17'612.2
2017-Dec-07 23:30N 37°49' W 122°25'0 0.0
2017-Dec-07 23:00N 37°49' W 122°25'0 0.0
2017-Dec-07 22:30N 37°49' W 122°25'0 0.0
2017-Dec-07 22:00N 37°49' W 122°25'0 0.0
2017-Dec-07 21:30N 37°49' W 122°25'0 0.0
2017-Dec-07 21:00N 37°49' W 122°25'0 0.0
2017-Dec-07 20:30N 37°49' W 122°25'0 0.0
2017-Dec-07 20:00N 37°49' W 122°25'1 1.8
2017-Dec-07 19:30N 37°48' W 122°24'0 0.0
2017-Dec-07 19:00N 37°48' W 122°24'0 0.0
2017-Dec-07 18:30N 37°48' W 122°24'1 2.0
2017-Dec-07 18:01N 37°49' W 122°25'510.2
2017-Dec-07 17:30N 37°48' W 122°18'1 1.0
2017-Dec-07 17:01N 37°48' W 122°18'3 5.3
2017-Dec-07 16:30N 37°48' W 122°21'2 3.0
2017-Dec-07 16:00N 37°48' W 122°19'3 6.7
2017-Dec-07 15:30N 37°48' W 122°24'510.5
2017-Dec-07 15:00N 37°48' W 122°17'4 7.1
2017-Dec-07 14:30N 37°48' W 122°21'3 5.8
2017-Dec-07 14:01N 37°47' W 122°18'3 5.2
2017-Dec-07 13:31N 37°48' W 122°21'3 6.2
2017-Dec-07 13:00N 37°49' W 122°25'0 0.0
2017-Dec-07 04:42N 37°49' W 122°25'1 3.5
2017-Dec-07 04:31N 37°49' W 122°24'611.4
2017-Dec-07 04:00N 37°48' W 122°17'4 8.5
2017-Dec-07 03:31N 37°48' W 122°22'4 7.8
2017-Dec-07 03:00N 37°48' W 122°17'4 7.9
2017-Dec-07 02:31N 37°48' W 122°22'4 8.5
2017-Dec-07 02:00N 37°48' W 122°17'2 4.5
2017-Dec-07 01:31N 37°48' W 122°20'3 6.1
2017-Dec-07 01:00N 37°48' W 122°24'0 0.8
2017-Dec-07 00:31N 37°48' W 122°23'5 9.5
2017-Dec-07 00:00N 37°48' W 122°17'612.2
2017-Dec-06 23:30N 37°49' W 122°25'0 0.0
2017-Dec-06 23:01N 37°49' W 122°25'0 0.0
2017-Dec-06 22:30N 37°49' W 122°25'0 0.0
2017-Dec-06 22:01N 37°49' W 122°25'0 0.0
2017-Dec-06 21:31N 37°49' W 122°25'0 0.0
2017-Dec-06 21:01N 37°49' W 122°25'  
2017-Dec-04 04:36N 37°49' W 122°25'0 0.0
2017-Dec-04 04:31N 37°49' W 122°25'3 6.7
2017-Dec-04 04:01N 37°48' W 122°21'2 4.8
2017-Dec-04 03:31N 37°47' W 122°18'611.5
2017-Dec-04 03:01N 37°49' W 122°25'2 4.8
2017-Dec-04 02:31N 37°48' W 122°22'3 6.7
2017-Dec-04 02:00N 37°47' W 122°18'5 9.0
2017-Dec-04 01:31N 37°48' W 122°23'1 1.5
2017-Dec-04 01:01N 37°48' W 122°23'4 8.6
2017-Dec-04 00:31N 37°47' W 122°18'4 9.0
2017-Dec-04 00:01N 37°48' W 122°23'1 2.7
2017-Dec-03 23:30N 37°49' W 122°25'0 0.0
2017-Dec-03 23:00N 37°49' W 122°25'0 0.1
2017-Dec-03 22:31N 37°49' W 122°25'510.6
2017-Dec-03 22:01N 37°48' W 122°18'0 0.6
2017-Dec-03 21:31N 37°47' W 122°18'611.2
2017-Dec-03 21:01N 37°49' W 122°25'1 2.8
2017-Dec-03 20:31N 37°48' W 122°23'5 9.5
2017-Dec-03 20:01N 37°48' W 122°17'5 9.8
2017-Dec-03 19:30N 37°48' W 122°24'1 0.1
2017-Dec-02 23:45N 37°49' W 122°25'1 2.5
2017-Dec-02 23:31N 37°49' W 122°24'611.7
2017-Dec-02 23:00N 37°48' W 122°17'2 3.8
2017-Dec-02 22:31N 37°48' W 122°19'4 8.7
2017-Dec-02 22:00N 37°49' W 122°25'0 0.0
2017-Dec-02 21:30N 37°49' W 122°25'0 0.0
2017-Dec-02 21:00N 37°49' W 122°25'0 0.0
2017-Dec-02 20:30N 37°49' W 122°25'1 2.6
2017-Dec-02 20:00N 37°48' W 122°24'510.6
2017-Dec-02 19:31N 37°48' W 122°17'3 6.8
2017-Dec-02 19:01N 37°48' W 122°21'3 6.0
2017-Dec-02 18:30N 37°49' W 122°25'611.5
2017-Dec-02 18:01N 37°47' W 122°18'2 4.9
2017-Dec-02 17:31N 37°48' W 122°21'3 6.5
2017-Dec-02 17:01N 37°49' W 122°25'0 0.0
2017-Dec-02 04:37N 37°49' W 122°25'0 3.7
2017-Dec-02 04:31N 37°49' W 122°24'612.2
2017-Dec-02 04:00N 37°48' W 122°17'4 7.9
2017-Dec-02 03:31N 37°47' W 122°22'4 7.5
2017-Dec-02 03:01N 37°48' W 122°17'4 8.3
2017-Dec-02 02:31N 37°48' W 122°22'4 7.9
2017-Dec-02 02:00N 37°48' W 122°17'2 4.0
2017-Dec-02 01:31N 37°48' W 122°20'3 5.9
2017-Dec-02 01:01N 37°48' W 122°24'0 0.6
2017-Dec-02 00:31N 37°48' W 122°23'5 9.1
2017-Dec-02 00:01N 37°48' W 122°17'611.6
2017-Dec-01 23:30N 37°49' W 122°25'0 0.0
2017-Dec-01 23:00N 37°49' W 122°25'0 0.0
2017-Dec-01 22:30N 37°49' W 122°25'0 0.0
2017-Dec-01 22:00N 37°49' W 122°25'0 0.0
2017-Dec-01 21:30N 37°49' W 122°25'0 0.0
2017-Dec-01 21:00N 37°49' W 122°25'0 0.0
2017-Dec-01 20:30N 37°49' W 122°25'0 0.0
2017-Dec-01 20:00N 37°49' W 122°25'0 0.0
2017-Dec-01 19:30N 37°49' W 122°25'0 0.0
2017-Dec-01 19:00N 37°49' W 122°25'0 0.0
2017-Dec-01 18:30N 37°49' W 122°25'1 1.2
2017-Dec-01 18:01N 37°49' W 122°24'510.2
2017-Dec-01 17:31N 37°47' W 122°18'1 1.4
2017-Dec-01 17:01N 37°48' W 122°19'  
Track history (hours):
 
Tides and Currents Weather Stations Pressure Air Temp Water Temp Dewpoint Dewpoint Depression Visibility Wind Speed Wind Dir Waves Ship Positions

Cetus

Owner: San Francisco Bay Area Water Emergency Transportation Authorithy, San Francisco, CA. More information available from US FCC via Universal Licensing System and Coast Guard Vessel Documentation Center.

Last reported at 2017-Dec-11 17:01 UTC. Time now 2017-Dec-13 05:08 UTC.
Position N 37°48' W 122°18'.

Length 41 m; draft 2 m.

Type: Passenger vessel. MMSI: 367786010.

Date/timePositionNaut miles runAvg speedWind from/ knotsBaromVisibWave heightAir tempDewpointWater temp
2017-Dec-11 17:01N 37°48' W 122°18'2 4.0
2017-Dec-11 16:30N 37°48' W 122°21'1 1.9
2017-Dec-11 16:00N 37°48' W 122°20'3 5.4
2017-Dec-11 15:31N 37°48' W 122°23'5 9.7
2017-Dec-11 15:00N 37°48' W 122°17'4 7.9
2017-Dec-11 14:30N 37°47' W 122°22'3 6.5
2017-Dec-11 14:01N 37°47' W 122°18'3 5.9
2017-Dec-11 13:31N 37°48' W 122°21'3 5.5
2017-Dec-11 13:00N 37°49' W 122°25'0 0.0
2017-Dec-11 04:33N 37°49' W 122°25'0 0.0
2017-Dec-11 04:30N 37°49' W 122°25'612.5
2017-Dec-11 04:01N 37°48' W 122°17'2 3.9
2017-Dec-11 03:30N 37°48' W 122°19'4 8.6
2017-Dec-11 03:01N 37°49' W 122°25'4 9.0
2017-Dec-11 02:31N 37°48' W 122°19'1 2.5
2017-Dec-11 02:01N 37°47' W 122°18'4 8.9
2017-Dec-11 01:31N 37°48' W 122°23'1 2.7
2017-Dec-11 01:01N 37°48' W 122°22'3 6.2
2017-Dec-11 00:30N 37°47' W 122°18'4 9.0
2017-Dec-11 00:00N 37°48' W 122°23'1 2.7
2017-Dec-10 23:30N 37°49' W 122°25'0 0.0
2017-Dec-10 23:00N 37°49' W 122°25'1 1.1
2017-Dec-10 22:30N 37°49' W 122°24'510.2
2017-Dec-10 22:00N 37°48' W 122°18'1 1.6
2017-Dec-10 21:30N 37°48' W 122°19'5 9.6
2017-Dec-10 21:00N 37°49' W 122°25'1 2.6
2017-Dec-10 20:30N 37°48' W 122°24'510.2
2017-Dec-10 20:01N 37°48' W 122°17'510.2
2017-Dec-10 19:31N 37°48' W 122°24'1 2.6
2017-Dec-10 19:01N 37°49' W 122°25'0 0.0
2017-Dec-10 18:30N 37°49' W 122°25'0 0.0
2017-Dec-10 18:00N 37°49' W 122°25'0 0.0
2017-Dec-10 17:31N 37°49' W 122°25'0 0.0
2017-Dec-10 17:00N 37°49' W 122°25'0 0.0
2017-Dec-10 16:30N 37°49' W 122°25'0 0.0
2017-Dec-10 16:00N 37°49' W 122°25'0 0.0
2017-Dec-10 15:30N 37°49' W 122°25'0 0.0
2017-Dec-10 15:01N 37°49' W 122°25'0 0.0
2017-Dec-10 14:30N 37°49' W 122°25'0 0.0
2017-Dec-10 14:00N 37°49' W 122°25'0 0.0
2017-Dec-10 13:30N 37°49' W 122°25'0 0.0
2017-Dec-10 13:00N 37°49' W 122°25'0 0.1
2017-Dec-10 12:30N 37°49' W 122°25'0 0.1
2017-Dec-10 12:00N 37°49' W 122°25'0 0.0
2017-Dec-10 11:30N 37°49' W 122°25'0 0.0
2017-Dec-10 11:01N 37°49' W 122°25'0 0.0
2017-Dec-10 10:30N 37°49' W 122°25'0 0.0
2017-Dec-10 10:00N 37°49' W 122°25'0 0.0
2017-Dec-10 09:30N 37°49' W 122°25'0 0.0
2017-Dec-10 09:00N 37°49' W 122°25'0 0.0
2017-Dec-10 08:31N 37°49' W 122°25'0 0.0
2017-Dec-10 08:00N 37°49' W 122°25'0 0.0
2017-Dec-10 07:31N 37°49' W 122°25'0 0.0
2017-Dec-10 07:00N 37°49' W 122°25'0 0.0
2017-Dec-10 06:30N 37°49' W 122°25'0 0.0
2017-Dec-10 06:00N 37°49' W 122°25'0 0.0
2017-Dec-10 05:30N 37°49' W 122°25'0 0.0
2017-Dec-10 05:01N 37°49' W 122°25'0 0.0
2017-Dec-10 04:31N 37°49' W 122°25'0 0.0
2017-Dec-10 04:00N 37°49' W 122°25'0 0.0
2017-Dec-10 03:30N 37°49' W 122°25'0 0.0
2017-Dec-10 03:00N 37°49' W 122°25'0 0.0
2017-Dec-10 02:30N 37°49' W 122°25'0 0.0
2017-Dec-10 02:00N 37°49' W 122°25'0 0.0
2017-Dec-10 01:30N 37°49' W 122°25'0 0.0
2017-Dec-10 01:00N 37°49' W 122°25'0 0.0
2017-Dec-10 00:30N 37°49' W 122°25'0 0.0
2017-Dec-10 00:00N 37°49' W 122°25'1 2.5
2017-Dec-09 23:31N 37°48' W 122°23'510.3
2017-Dec-09 23:00N 37°48' W 122°17'2 3.5
2017-Dec-09 22:30N 37°48' W 122°19'5 9.1
2017-Dec-09 22:00N 37°49' W 122°25'0 0.0
2017-Dec-09 21:30N 37°49' W 122°25'0 0.0
2017-Dec-09 21:00N 37°49' W 122°25'0 0.0
2017-Dec-09 20:30N 37°49' W 122°25'2 4.7
2017-Dec-09 20:00N 37°48' W 122°22'3 6.9
2017-Dec-09 19:30N 37°47' W 122°18'5 9.2
2017-Dec-09 19:00N 37°48' W 122°24'1 2.6
2017-Dec-09 18:30N 37°49' W 122°25'611.4
2017-Dec-09 18:00N 37°47' W 122°18'1 2.6
2017-Dec-09 17:30N 37°48' W 122°19'4 8.8
2017-Dec-09 17:00N 37°49' W 122°25'0 0.0
2017-Dec-09 04:58N 37°49' W 122°25'1 2.1
2017-Dec-09 04:30N 37°48' W 122°24'510.8
2017-Dec-09 04:00N 37°48' W 122°17'4 8.5
2017-Dec-09 03:31N 37°48' W 122°22'4 8.3
2017-Dec-09 03:01N 37°48' W 122°17'4 8.4
2017-Dec-09 02:31N 37°48' W 122°22'4 7.8
2017-Dec-09 02:00N 37°48' W 122°17'2 3.8
2017-Dec-09 01:31N 37°48' W 122°20'3 6.0
2017-Dec-09 01:00N 37°48' W 122°24'1 2.1
2017-Dec-09 00:30N 37°48' W 122°22'4 8.6
2017-Dec-09 00:00N 37°48' W 122°17'612.5
2017-Dec-08 23:30N 37°49' W 122°25'0 0.0
2017-Dec-08 23:00N 37°49' W 122°25'0 0.0
2017-Dec-08 22:30N 37°49' W 122°25'0 0.0
2017-Dec-08 22:00N 37°49' W 122°25'0 0.0
2017-Dec-08 21:30N 37°49' W 122°25'0 0.0
2017-Dec-08 21:00N 37°49' W 122°25'0 0.0
2017-Dec-08 20:30N 37°49' W 122°25'0 0.0
2017-Dec-08 20:00N 37°49' W 122°25'0 0.0
2017-Dec-08 19:30N 37°49' W 122°25'0 0.0
2017-Dec-08 19:00N 37°49' W 122°25'0 0.0
2017-Dec-08 18:30N 37°49' W 122°25'0 0.1
2017-Dec-08 18:01N 37°49' W 122°25'510.8
2017-Dec-08 17:31N 37°48' W 122°18'1 1.5
2017-Dec-08 17:00N 37°48' W 122°17'3 6.4
2017-Dec-08 16:31N 37°48' W 122°21'3 5.0
2017-Dec-08 16:00N 37°48' W 122°18'4 8.7
2017-Dec-08 15:31N 37°48' W 122°24'510.6
2017-Dec-08 15:01N 37°48' W 122°17'4 7.7
2017-Dec-08 14:31N 37°47' W 122°22'3 6.3
2017-Dec-08 14:00N 37°47' W 122°18'2 3.4
2017-Dec-08 13:30N 37°48' W 122°20'4 8.0
2017-Dec-08 13:00N 37°49' W 122°25'0 0.0
2017-Dec-08 04:39N 37°49' W 122°25'1 4.7
2017-Dec-08 04:31N 37°49' W 122°24'611.4
2017-Dec-08 04:00N 37°48' W 122°17'5 9.6
2017-Dec-08 03:31N 37°48' W 122°23'5 9.5
2017-Dec-08 03:01N 37°48' W 122°17'4 8.3
2017-Dec-08 02:31N 37°47' W 122°22'4 8.4
2017-Dec-08 02:01N 37°48' W 122°17'2 5.0
2017-Dec-08 01:31N 37°48' W 122°20'3 5.7
2017-Dec-08 01:01N 37°48' W 122°24'0 0.4
2017-Dec-08 00:31N 37°48' W 122°23'510.0
2017-Dec-08 00:01N 37°48' W 122°17'612.2
2017-Dec-07 23:30N 37°49' W 122°25'0 0.0
2017-Dec-07 23:00N 37°49' W 122°25'0 0.0
2017-Dec-07 22:30N 37°49' W 122°25'0 0.0
2017-Dec-07 22:00N 37°49' W 122°25'0 0.0
2017-Dec-07 21:30N 37°49' W 122°25'0 0.0
2017-Dec-07 21:00N 37°49' W 122°25'0 0.0
2017-Dec-07 20:30N 37°49' W 122°25'0 0.0
2017-Dec-07 20:00N 37°49' W 122°25'1 1.8
2017-Dec-07 19:30N 37°48' W 122°24'0 0.0
2017-Dec-07 19:00N 37°48' W 122°24'0 0.0
2017-Dec-07 18:30N 37°48' W 122°24'1 2.0
2017-Dec-07 18:01N 37°49' W 122°25'510.2
2017-Dec-07 17:30N 37°48' W 122°18'1 1.0
2017-Dec-07 17:01N 37°48' W 122°18'3 5.3
2017-Dec-07 16:30N 37°48' W 122°21'2 3.0
2017-Dec-07 16:00N 37°48' W 122°19'3 6.7
2017-Dec-07 15:30N 37°48' W 122°24'510.5
2017-Dec-07 15:00N 37°48' W 122°17'4 7.1
2017-Dec-07 14:30N 37°48' W 122°21'3 5.8
2017-Dec-07 14:01N 37°47' W 122°18'3 5.2
2017-Dec-07 13:31N 37°48' W 122°21'3 6.2
2017-Dec-07 13:00N 37°49' W 122°25'0 0.0
2017-Dec-07 04:42N 37°49' W 122°25'1 3.5
2017-Dec-07 04:31N 37°49' W 122°24'611.4
2017-Dec-07 04:00N 37°48' W 122°17'4 8.5
2017-Dec-07 03:31N 37°48' W 122°22'4 7.8
2017-Dec-07 03:00N 37°48' W 122°17'4 7.9
2017-Dec-07 02:31N 37°48' W 122°22'4 8.5
2017-Dec-07 02:00N 37°48' W 122°17'2 4.5
2017-Dec-07 01:31N 37°48' W 122°20'3 6.1
2017-Dec-07 01:00N 37°48' W 122°24'0 0.8
2017-Dec-07 00:31N 37°48' W 122°23'5 9.5
2017-Dec-07 00:00N 37°48' W 122°17'612.2
2017-Dec-06 23:30N 37°49' W 122°25'0 0.0
2017-Dec-06 23:01N 37°49' W 122°25'0 0.0
2017-Dec-06 22:30N 37°49' W 122°25'0 0.0
2017-Dec-06 22:01N 37°49' W 122°25'0 0.0
2017-Dec-06 21:31N 37°49' W 122°25'0 0.0
2017-Dec-06 21:01N 37°49' W 122°25'  
2017-Dec-04 04:36N 37°49' W 122°25'0 0.0
2017-Dec-04 04:31N 37°49' W 122°25'3 6.7
2017-Dec-04 04:01N 37°48' W 122°21'2 4.8
2017-Dec-04 03:31N 37°47' W 122°18'611.5
2017-Dec-04 03:01N 37°49' W 122°25'2 4.8
2017-Dec-04 02:31N 37°48' W 122°22'3 6.7
2017-Dec-04 02:00N 37°47' W 122°18'5 9.0
2017-Dec-04 01:31N 37°48' W 122°23'1 1.5
2017-Dec-04 01:01N 37°48' W 122°23'4 8.6
2017-Dec-04 00:31N 37°47' W 122°18'4 9.0
2017-Dec-04 00:01N 37°48' W 122°23'1 2.7
2017-Dec-03 23:30N 37°49' W 122°25'0 0.0
2017-Dec-03 23:00N 37°49' W 122°25'0 0.1
2017-Dec-03 22:31N 37°49' W 122°25'510.6
2017-Dec-03 22:01N 37°48' W 122°18'0 0.6
2017-Dec-03 21:31N 37°47' W 122°18'611.2
2017-Dec-03 21:01N 37°49' W 122°25'1 2.8
2017-Dec-03 20:31N 37°48' W 122°23'5 9.5
2017-Dec-03 20:01N 37°48' W 122°17'5 9.8
2017-Dec-03 19:30N 37°48' W 122°24'1 0.1
2017-Dec-02 23:45N 37°49' W 122°25'1 2.5
2017-Dec-02 23:31N 37°49' W 122°24'611.7
2017-Dec-02 23:00N 37°48' W 122°17'2 3.8
2017-Dec-02 22:31N 37°48' W 122°19'4 8.7
2017-Dec-02 22:00N 37°49' W 122°25'0 0.0
2017-Dec-02 21:30N 37°49' W 122°25'0 0.0
2017-Dec-02 21:00N 37°49' W 122°25'0 0.0
2017-Dec-02 20:30N 37°49' W 122°25'1 2.6
2017-Dec-02 20:00N 37°48' W 122°24'510.6
2017-Dec-02 19:31N 37°48' W 122°17'3 6.8
2017-Dec-02 19:01N 37°48' W 122°21'3 6.0
2017-Dec-02 18:30N 37°49' W 122°25'611.5
2017-Dec-02 18:01N 37°47' W 122°18'2 4.9
2017-Dec-02 17:31N 37°48' W 122°21'3 6.5
2017-Dec-02 17:01N 37°49' W 122°25'0 0.0
2017-Dec-02 04:37N 37°49' W 122°25'0 3.7
2017-Dec-02 04:31N 37°49' W 122°24'612.2
2017-Dec-02 04:00N 37°48' W 122°17'4 7.9
2017-Dec-02 03:31N 37°47' W 122°22'4 7.5
2017-Dec-02 03:01N 37°48' W 122°17'4 8.3
2017-Dec-02 02:31N 37°48' W 122°22'4 7.9
2017-Dec-02 02:00N 37°48' W 122°17'2 4.0
2017-Dec-02 01:31N 37°48' W 122°20'3 5.9
2017-Dec-02 01:01N 37°48' W 122°24'0 0.6
2017-Dec-02 00:31N 37°48' W 122°23'5 9.1
2017-Dec-02 00:01N 37°48' W 122°17'611.6
2017-Dec-01 23:30N 37°49' W 122°25'0 0.0
2017-Dec-01 23:00N 37°49' W 122°25'0 0.0
2017-Dec-01 22:30N 37°49' W 122°25'0 0.0
2017-Dec-01 22:00N 37°49' W 122°25'0 0.0
2017-Dec-01 21:30N 37°49' W 122°25'0 0.0
2017-Dec-01 21:00N 37°49' W 122°25'0 0.0
2017-Dec-01 20:30N 37°49' W 122°25'0 0.0
2017-Dec-01 20:00N 37°49' W 122°25'0 0.0
2017-Dec-01 19:30N 37°49' W 122°25'0 0.0
2017-Dec-01 19:00N 37°49' W 122°25'0 0.0
2017-Dec-01 18:30N 37°49' W 122°25'1 1.2
2017-Dec-01 18:01N 37°49' W 122°24'510.2
2017-Dec-01 17:31N 37°47' W 122°18'1 1.4
2017-Dec-01 17:01N 37°48' W 122°19'  

Dump ship's entire track history